Historyczne dane pomiarowe

Dodano dane terminowe – wersja testowa.

Dane z okresu 1951-2019

Wersja bazy: 1.34 [2019-03-16, lista zmian], aktualizacja planowana na 2019-04-15

Dane meteo z obszaru Polski uzyskane na podstawie danych udostępnionych przez Instytut Meteorologii i Gospodarki Wodnej – Państwowy Instytut Badawczy.

 

Wybierz Datę:    

       

TemperaturaWilgotnośćWiatrCiśnienieOpadyŚniegCzas trwania zjawisk
 Stacja t tx tn tng RH VA  wxwx mslp ppp RRR   cm mm wxwxwxwxwxwxwx
1970-05-15 5.4 10.8 3.8- 91.3- 3.3 2.0---- 0.0------------
1970-05-16 4.9 7.3 3.3- 86.8- 1.3 5.0---- 0.0------------
1970-05-17 6.1 8.2 3.3- 75.8- 0.0 4.3---- 0.0------------
1970-05-18 8.8 13.4 3.0- 76.8- 0.3 3.0---- 0.0------------
1970-05-19 10.7 13.4 6.5- 81.5- 8.0 7.7---- 0.0------------
1970-05-20 9.1 13.0 7.0- 73.0- 4.0 7.0---- 0.0------------
1970-05-21 9.4 14.2 8.2- 88.3- 7.0 3.0---- 2.1------------
1970-05-22 8.1 12.7 6.6- 83.5- 5.7 3.7---- 2.0------------
1970-05-23 6.8 10.0 5.7- 89.8- 5.3 4.7---- 0.0------------
1970-05-24 8.1 10.8 3.3- 69.0- 0.0 1.7---- 0.0------------
1970-05-25 11.3 14.2 4.1- 61.0- 1.0 1.7---- 0.0------------
1970-05-26 10.1 18.1 7.8- 82.3- 8.0 2.7---- 0.7------------
1970-05-27 8.3 10.0 7.5- 93.0- 6.0 1.0---- 0.7------------
1970-05-28 7.1 10.0 6.2- 98.5- 8.0 1.3---- 0.0------------
1970-05-29 6.8 8.6 5.4- 98.5- 8.0 1.3---- 1.4------------
1970-05-30 9.3 11.7 6.8- 94.0- 7.3 1.3---- 9.3------------
1970-05-31 9.6 11.6 8.6- 88.0- 6.0 5.7---- 0.0------------
1970-06-01 9.3 11.2 6.9- 89.3- 8.0 5.0---- 1.6------------
1970-06-02 8.0 10.8 6.8- 94.0- 7.3 4.3---- 0.2------------
1970-06-03 8.8 11.6 6.4- 88.0- 0.7 2.0---- 0.1------------
1970-06-04 9.0 11.2 6.5- 91.5- 4.0 5.7---- 0.1------------
1970-06-05 13.1 15.9 8.9- 83.8- 3.7 4.7---- 0.0------------
1970-06-06 13.8 16.8 10.5- 85.5- 3.0 2.0---- 0.0------------
1970-06-07 14.9 17.4 10.8- 82.0- 1.0 1.0---- 0.0------------
1970-06-08 15.9 19.6 12.7- 82.5- 1.0 0.7---- 0.0------------
1970-06-09 16.2 21.6 12.4- 82.8- 1.0 1.3---- 1.5------------
1970-06-10 14.1 17.3 12.1- 94.0- 3.7 2.0---- 0.0------------
1970-06-11 12.2 15.0 10.9- 97.5- 8.0 4.3---- 0.0------------
1970-06-12 11.1 17.4 7.2- 79.8- 5.0 8.3---- 10.6------------
1970-06-13 8.5 9.7 6.9- 92.3- 5.3 10.3---- 9.0------------
264.3 ms

 

Źródłem pochodzenia danych jest Instytut Meteorologii i Gospodarki Wodnej – Państwowy Instytut Badawczy. Dane Instytutu Meteorologii i Gospodarki Wodnej – Państwowego Instytutu Badawczego zostały przetworzone.

Dane źródłowe można odnaleźć na stronie https://dane.imgw.pl